Time;durP1;ratioP1;P1;durP2;ratioP2;P2;SDS_P1;SDS_P2;PMS_P1;PMS_P2;Temp;Humidity;BMP_temperature;BMP_pressure;BME280_temperature;BME280_humidity;BME280_pressure;Samples;Min_cycle;Max_cycle;Signal;HPM_P1;HPM_P2
2022/04/02 00:00:53;;;;;;;;;;;;;;;5.66;64.65;101092.22;4974123;28;1729;-95
2022/04/02 00:03:20;;;;;;;;;;;;;;;5.64;64.54;101079.00;4976518;28;1988;-95
2022/04/02 00:05:47;;;;;;;;;;;;;;;5.61;64.62;101081.22;4979106;28;1309;-95
2022/04/02 00:08:13;;;;;;;;;;;;;;;5.60;64.69;101083.06;4978404;28;1596;-96
2022/04/02 00:10:39;;;;;;;;;;;;;;;5.59;64.61;101088.56;4971251;28;1503;-95
2022/04/02 00:13:06;;;;;;;;;;;;;;;5.57;64.66;101087.91;4966612;28;1923;-95
2022/04/02 00:15:33;;;;;;;;;;;;;;;5.57;64.62;101082.56;4994473;28;1413;-95
2022/04/02 00:17:59;;;;;;;;;;;;;;;5.54;64.65;101077.59;4978524;28;1425;-96
2022/04/02 00:20:26;;;;;;;;;;;;;;;5.53;64.67;101081.25;4972348;28;1665;-95
2022/04/02 00:25:36;;;;;;;;;;;;;;;5.48;64.59;101079.09;4978554;28;1493;-95
2022/04/02 00:28:03;;;;;;;;;;;;;;;5.47;64.56;101080.94;4975565;28;2124;-96
2022/04/02 00:30:30;;;;;;;;;;;;;;;5.45;64.50;101072.25;4975808;28;2149;-95
2022/04/02 00:32:56;;;;;;;;;;;;;;;5.44;64.55;101069.75;4969459;28;1189;-94
2022/04/02 00:35:23;;;;;;;;;;;;;;;5.42;64.54;101072.63;4978511;28;1175;-94
2022/04/02 00:37:49;;;;;;;;;;;;;;;5.41;64.62;101076.31;4977360;28;1669;-96
2022/04/02 00:40:18;;;;;;;;;;;;;;;5.41;64.38;101072.78;4968952;28;1602;-95
2022/04/02 00:42:45;;;;;;;;;;;;;;;5.36;64.39;101067.97;4968567;28;1299;-95
2022/04/02 00:45:12;;;;;;;;;;;;;;;5.35;64.48;101063.59;4977639;28;2127;-95
2022/04/02 00:47:38;;;;;;;;;;;;;;;5.33;64.34;101068.31;4977658;28;1541;-95
2022/04/02 00:50:04;;;;;;;;;;;;;;;5.32;64.61;101069.31;4978524;28;1189;-95
2022/04/02 00:52:31;;;;;;;;;;;;;;;5.31;64.33;101064.16;4977975;28;1596;-95
2022/04/02 00:54:57;;;;;;;;;;;;;;;5.30;64.29;101066.00;4976619;28;2013;-95
2022/04/02 00:57:24;;;;;;;;;;;;;;;5.29;64.52;101064.31;4974669;28;1387;-95
2022/04/02 00:59:51;;;;;;;;;;;;;;;5.28;64.40;101067.16;4968829;28;1355;-95
2022/04/02 01:02:18;;;;;;;;;;;;;;;5.26;64.32;101067.31;4977374;28;1822;-94
2022/04/02 01:04:46;;;;;;;;;;;;;;;5.23;64.34;101065.00;4993822;28;1774;-95
2022/04/02 01:07:13;;;;;;;;;;;;;;;5.22;64.48;101069.50;4978035;28;1361;-95
2022/04/02 01:09:39;;;;;;;;;;;;;;;5.22;64.14;101064.16;4977312;28;1400;-95
2022/04/02 01:12:05;;;;;;;;;;;;;;;5.20;64.24;101068.84;4978242;28;1437;-95
2022/04/02 01:14:32;;;;;;;;;;;;;;;5.18;64.28;101068.19;4977092;28;1993;-95
2022/04/02 01:17:01;;;;;;;;;;;;;;;5.16;64.19;101061.34;4974734;28;1599;-95
2022/04/02 01:19:28;;;;;;;;;;;;;;;5.15;64.33;101065.88;4969418;28;1284;-95
2022/04/02 01:21:54;;;;;;;;;;;;;;;5.13;64.13;101069.72;4978163;28;1153;-94
2022/04/02 01:24:20;;;;;;;;;;;;;;;5.13;64.06;101069.72;4977593;28;1527;-95
2022/04/02 01:26:47;;;;;;;;;;;;;;;5.10;64.24;101070.06;4968641;28;1333;-95
2022/04/02 01:29:13;;;;;;;;;;;;;;;5.09;64.22;101074.56;4966496;28;2064;-95
2022/04/02 01:31:40;;;;;;;;;;;;;;;5.08;64.18;101077.41;4970228;28;1513;-95
2022/04/02 01:34:06;;;;;;;;;;;;;;;5.06;64.23;101072.25;4971706;28;5261;-95
2022/04/02 01:36:32;;;;;;;;;;;;;;;5.04;64.05;101066.22;4993527;28;4926;-95
2022/04/02 01:38:59;;;;;;;;;;;;;;;5.03;64.10;101069.91;4967204;28;1794;-95
2022/04/02 01:41:25;;;;;;;;;;;;;;;5.01;64.09;101069.25;4972799;28;2350;-94
2022/04/02 01:43:52;;;;;;;;;;;;;;;5.00;64.17;101070.25;4967730;28;2068;-95
2022/04/02 01:46:18;;;;;;;;;;;;;;;4.98;64.15;101074.94;4957718;28;1592;-95
2022/04/02 01:48:45;;;;;;;;;;;;;;;4.98;64.15;101080.25;4955237;29;1497;-95
2022/04/02 01:51:12;;;;;;;;;;;;;;;4.94;64.02;101077.09;4956038;28;1547;-95
2022/04/02 01:53:38;;;;;;;;;;;;;;;4.92;64.19;101079.09;4958459;28;5190;-95
2022/04/02 01:56:05;;;;;;;;;;;;;;;4.90;64.22;101062.41;4973666;28;1624;-96
2022/04/02 01:58:31;;;;;;;;;;;;;;;4.89;64.16;101067.94;4958383;28;1278;-95
2022/04/02 02:00:58;;;;;;;;;;;;;;;4.87;63.96;101072.59;4953984;28;2029;-95
2022/04/02 02:03:24;;;;;;;;;;;;;;;4.87;64.07;101067.28;4958396;28;1472;-95
2022/04/02 02:05:51;;;;;;;;;;;;;;;4.85;64.02;101070.09;4955704;28;3386;-95
2022/04/02 02:08:17;;;;;;;;;;;;;;;4.84;64.01;101073.78;4974457;28;1189;-95
2022/04/02 02:10:44;;;;;;;;;;;;;;;4.82;63.83;101073.09;4957300;28;2078;-94
2022/04/02 02:13:11;;;;;;;;;;;;;;;4.80;63.95;101075.13;4960363;28;1276;-95
2022/04/02 02:15:37;;;;;;;;;;;;;;;4.79;63.94;101078.78;4960717;28;1989;-95
2022/04/02 02:18:04;;;;;;;;;;;;;;;4.77;64.00;101073.63;4961909;28;1198;-95
2022/04/02 02:20:30;;;;;;;;;;;;;;;4.74;63.90;101079.31;4961113;28;1451;-96
2022/04/02 02:22:57;;;;;;;;;;;;;;;4.74;63.94;101078.47;4961094;28;1579;-95
2022/04/02 02:25:23;;;;;;;;;;;;;;;4.72;64.02;101075.13;4960877;28;2008;-95
2022/04/02 02:27:49;;;;;;;;;;;;;;;4.71;63.80;101076.97;4956539;28;2128;-95
2022/04/02 02:30:16;;;;;;;;;;;;;;;4.70;63.80;101077.97;4958360;28;2092;-95
2022/04/02 02:32:42;;;;;;;;;;;;;;;4.69;63.77;101080.81;4961280;28;1240;-95
2022/04/02 02:37:53;;;;;;;;;;;;;;;4.64;63.82;101086.63;4975771;28;2016;-94
2022/04/02 02:40:20;;;;;;;;;;;;;;;4.62;63.93;101082.47;4961436;28;1231;-95
2022/04/02 02:42:46;;;;;;;;;;;;;;;4.61;63.92;101075.47;4960277;28;1555;-95
2022/04/02 02:45:12;;;;;;;;;;;;;;;4.61;63.69;101080.81;4968326;28;2187;-95
2022/04/02 02:47:39;;;;;;;;;;;;;;;4.59;63.71;101077.47;4961028;28;1547;-95
2022/04/02 02:50:06;;;;;;;;;;;;;;;4.57;63.66;101087.50;4977156;28;1301;-95
2022/04/02 02:52:32;;;;;;;;;;;;;;;4.57;63.69;101090.16;4975685;28;1678;-95
2022/04/02 02:54:59;;;;;;;;;;;;;;;4.55;63.74;101091.13;4960962;28;1997;-95
2022/04/02 02:57:25;;;;;;;;;;;;;;;4.54;63.63;101089.47;4959725;28;1965;-95
2022/04/02 02:59:52;;;;;;;;;;;;;;;4.52;63.72;101083.47;4963422;28;2077;-95
2022/04/02 03:02:18;;;;;;;;;;;;;;;4.52;63.64;101088.81;4967736;28;1548;-95
2022/04/02 03:04:45;;;;;;;;;;;;;;;4.50;63.56;101093.50;4960819;28;1167;-95
2022/04/02 03:07:12;;;;;;;;;;;;;;;4.51;63.38;101091.66;4954430;28;1732;-95
2022/04/02 03:09:38;;;;;;;;;;;;;;;4.49;63.60;101094.47;4967822;28;1204;-95
2022/04/02 03:12:04;;;;;;;;;;;;;;;4.48;63.44;101095.50;4960585;28;1598;-95
2022/04/02 03:14:31;;;;;;;;;;;;;;;4.49;63.33;101088.31;4960636;28;1997;-95
2022/04/02 03:16:57;;;;;;;;;;;;;;;4.47;63.40;101088.50;4959872;28;1562;-94
2022/04/02 03:19:24;;;;;;;;;;;;;;;4.46;63.35;101088.66;4960776;28;1185;-95
2022/04/02 03:21:50;;;;;;;;;;;;;;;4.46;63.33;101091.31;4959994;28;1582;-94
2022/04/02 03:24:16;;;;;;;;;;;;;;;4.46;63.27;101096.66;4967032;28;2165;-94
2022/04/02 03:26:43;;;;;;;;;;;;;;;4.46;62.99;101096.66;4971482;28;2164;-95
2022/04/02 03:29:09;;;;;;;;;;;;;;;4.46;63.10;101094.81;4968970;28;1393;-96
2022/04/02 03:31:36;;;;;;;;;;;;;;;4.45;63.13;101093.16;4959554;28;1364;-95
2022/04/02 03:34:02;;;;;;;;;;;;;;;4.43;63.20;101089.81;4951343;28;2194;-95
2022/04/02 03:36:29;;;;;;;;;;;;;;;4.43;63.10;101083.66;4954914;28;1455;-95
2022/04/02 03:38:55;;;;;;;;;;;;;;;4.45;62.98;101087.00;4969510;28;1340;-95
2022/04/02 03:41:23;;;;;;;;;;;;;;;4.42;62.93;101088.16;4960016;28;1566;-96
2022/04/02 03:43:51;;;;;;;;;;;;;;;4.42;63.04;101090.00;4966226;28;1349;-96
2022/04/02 03:49:10;;;;;;;;;;;;;;;4.39;62.89;101087.66;4970958;28;2409;-95
2022/04/02 03:51:38;;;;;;;;;;;;;;;4.41;62.61;101090.97;4978797;28;1509;-96
2022/04/02 03:54:04;;;;;;;;;;;;;;;4.40;62.75;101089.31;4967567;28;1914;-96
2022/04/02 03:56:31;;;;;;;;;;;;;;;4.39;62.82;101091.16;4978934;28;1309;-96
2022/04/02 03:58:57;;;;;;;;;;;;;;;4.40;62.60;101090.16;4978064;28;1613;-95
2022/04/02 04:01:24;;;;;;;;;;;;;;;4.39;62.82;101095.66;4976153;28;2088;-95
2022/04/02 04:03:50;;;;;;;;;;;;;;;4.36;62.86;101094.16;4971427;28;5266;-95
2022/04/02 04:06:18;;;;;;;;;;;;;;;4.37;62.77;101100.31;4986505;28;5050;-95
2022/04/02 04:08:45;;;;;;;;;;;;;;;4.37;62.69;101102.97;4989352;28;1605;-95
2022/04/02 04:11:14;;;;;;;;;;;;;;;4.36;62.52;101090.66;4990995;28;5112;-95
2022/04/02 04:13:40;;;;;;;;;;;;;;;4.35;62.69;101097.81;4990139;28;2038;-95
2022/04/02 04:16:07;;;;;;;;;;;;;;;4.37;62.74;101094.97;4993873;28;1922;-95
2022/04/02 04:18:34;;;;;;;;;;;;;;;4.34;62.48;101096.16;4978802;28;1332;-95
2022/04/02 04:21:00;;;;;;;;;;;;;;;4.33;62.69;101087.31;4977989;28;1383;-95
2022/04/02 04:23:26;;;;;;;;;;;;;;;4.33;62.67;101089.97;4978053;28;1831;-95
2022/04/02 04:25:53;;;;;;;;;;;;;;;4.35;62.28;101086.31;4978576;28;1359;-95
2022/04/02 04:28:19;;;;;;;;;;;;;;;4.32;62.30;101080.31;4963684;28;1182;-95
2022/04/02 04:30:48;;;;;;;;;;;;;;;4.35;62.35;101080.97;4973141;28;1909;-95
2022/04/02 04:33:14;;;;;;;;;;;;;;;4.31;62.57;101078.63;4978471;28;1264;-95
2022/04/02 04:35:41;;;;;;;;;;;;;;;4.32;62.40;101075.00;4972581;28;2905;-95
2022/04/02 04:38:07;;;;;;;;;;;;;;;4.33;62.04;101076.66;4975365;28;1970;-95
2022/04/02 04:40:34;;;;;;;;;;;;;;;4.33;62.10;101073.16;4978549;28;1690;-95
2022/04/02 04:43:00;;;;;;;;;;;;;;;4.31;62.21;101070.63;4978143;28;1285;-95
2022/04/02 04:45:27;;;;;;;;;;;;;;;4.30;62.07;101070.81;4970481;28;1649;-94
2022/04/02 04:47:54;;;;;;;;;;;;;;;4.30;62.16;101063.66;4993071;28;2094;-95
2022/04/02 04:50:20;;;;;;;;;;;;;;;4.32;62.05;101066.13;4977954;28;1111;-95
2022/04/02 04:52:47;;;;;;;;;;;;;;;4.30;62.00;101073.50;4975438;28;1814;-95
2022/04/02 04:55:13;;;;;;;;;;;;;;;4.26;62.09;101064.97;4976758;28;1981;-96
2022/04/02 04:57:39;;;;;;;;;;;;;;;4.29;62.01;101063.78;4977638;28;2017;-96
2022/04/02 05:00:06;;;;;;;;;;;;;;;4.30;61.97;101071.66;4967167;28;2020;-95
2022/04/02 05:02:32;;;;;;;;;;;;;;;4.26;62.06;101064.97;4962340;28;1196;-95
2022/04/02 05:04:59;;;;;;;;;;;;;;;4.27;61.84;101077.31;4966771;28;1611;-95
2022/04/02 05:07:25;;;;;;;;;;;;;;;4.29;62.03;101078.00;4977438;28;2032;-95
2022/04/02 05:09:51;;;;;;;;;;;;;;;4.29;61.89;101072.66;4981343;28;1195;-94
2022/04/02 05:12:18;;;;;;;;;;;;;;;4.29;61.76;101078.00;4978229;28;1256;-94
2022/04/02 05:14:44;;;;;;;;;;;;;;;4.27;62.04;101079.16;4976503;28;1982;-95
2022/04/02 05:17:11;;;;;;;;;;;;;;;4.25;61.91;101081.13;4993673;28;2309;-95
2022/04/02 05:19:37;;;;;;;;;;;;;;;4.25;61.74;101087.31;4962235;28;1358;-95
2022/04/02 05:22:04;;;;;;;;;;;;;;;4.25;61.76;101075.81;4968566;28;1340;-95
2022/04/02 05:24:30;;;;;;;;;;;;;;;4.24;61.86;101080.31;4977834;28;1273;-95
2022/04/02 05:26:57;;;;;;;;;;;;;;;4.27;61.70;101089.81;4977317;28;1204;-95
2022/04/02 05:29:23;;;;;;;;;;;;;;;4.22;61.98;101092.97;4976989;28;1503;-95
2022/04/02 05:31:49;;;;;;;;;;;;;;;4.24;61.73;101095.47;4993388;28;1487;-95
2022/04/02 05:34:16;;;;;;;;;;;;;;;4.27;61.65;101079.16;4994021;28;1168;-94
2022/04/02 05:36:43;;;;;;;;;;;;;;;4.26;61.62;101090.78;4978167;28;1985;-94
2022/04/02 05:39:10;;;;;;;;;;;;;;;4.22;61.76;101081.47;4977046;28;1993;-94
2022/04/02 05:41:37;;;;;;;;;;;;;;;4.21;61.66;101083.31;4992065;28;1893;-95
2022/04/02 05:44:03;;;;;;;;;;;;;;;4.24;61.65;101084.81;4973711;28;1705;-93
2022/04/02 05:46:30;;;;;;;;;;;;;;;4.22;61.46;101086.81;4993633;28;2105;-94
2022/04/02 05:48:57;;;;;;;;;;;;;;;4.25;61.64;101091.81;4975717;28;2311;-95
2022/04/02 05:51:23;;;;;;;;;;;;;;;4.25;61.40;101089.97;4962198;28;1297;-95
2022/04/02 05:53:49;;;;;;;;;;;;;;;4.23;61.62;101085.78;4977045;28;2165;-96
2022/04/02 05:56:16;;;;;;;;;;;;;;;4.24;61.22;101090.97;4968178;28;1996;-95
2022/04/02 05:58:42;;;;;;;;;;;;;;;4.21;61.68;101082.47;4980046;28;1395;-95
2022/04/02 06:01:08;;;;;;;;;;;;;;;4.20;61.46;101078.97;4974098;28;2142;-95
2022/04/02 06:03:35;;;;;;;;;;;;;;;4.23;61.29;101081.28;4995491;28;1985;-94
2022/04/02 06:06:01;;;;;;;;;;;;;;;4.26;61.22;101082.78;4981370;28;1181;-95
2022/04/02 06:08:28;;;;;;;;;;;;;;;4.23;61.27;101077.78;4977779;28;2569;-95
2022/04/02 06:10:54;;;;;;;;;;;;;;;4.23;61.50;101083.97;4980743;28;1749;-95
2022/04/02 06:13:20;;;;;;;;;;;;;;;4.20;61.54;101078.13;4995433;28;2041;-94
2022/04/02 06:15:47;;;;;;;;;;;;;;;4.23;61.59;101086.63;4964188;28;2163;-94
2022/04/02 06:18:17;;;;;;;;;;;;;;;4.22;61.28;101081.47;4977492;28;1384;-94
2022/04/02 06:20:44;;;;;;;;;;;;;;;4.25;61.23;101087.31;4995361;28;1586;-95
2022/04/02 06:23:10;;;;;;;;;;;;;;;4.24;61.26;101084.81;4980582;28;1190;-96
2022/04/02 06:25:37;;;;;;;;;;;;;;;4.20;61.29;101092.28;4964043;28;1206;-94
2022/04/02 06:28:03;;;;;;;;;;;;;;;4.23;61.36;101089.28;4978347;28;1209;-95
2022/04/02 06:30:30;;;;;;;;;;;;;;;4.22;61.25;101090.31;4972330;28;1273;-96
2022/04/02 06:32:56;;;;;;;;;;;;;;;4.23;61.22;101091.97;4992836;28;1685;-95
2022/04/02 06:35:22;;;;;;;;;;;;;;;4.22;61.25;101095.63;4992124;28;5088;-96
2022/04/02 06:37:50;;;;;;;;;;;;;;;4.25;61.20;101108.63;4977029;28;5152;-95
2022/04/02 06:40:16;;;;;;;;;;;;;;;4.26;61.11;101102.28;4968326;28;4999;-95
2022/04/02 06:42:43;;;;;;;;;;;;;;;4.27;61.12;101105.81;4996790;28;1399;-96
2022/04/02 06:45:09;;;;;;;;;;;;;;;4.26;61.06;101094.28;4979889;28;2001;-94
2022/04/02 06:47:36;;;;;;;;;;;;;;;4.26;61.07;101099.63;4969255;28;1200;-95
2022/04/02 06:50:02;;;;;;;;;;;;;;;4.26;61.08;101099.63;4976612;28;2095;-95
2022/04/02 06:52:29;;;;;;;;;;;;;;;4.27;61.13;101093.31;4975182;28;5253;-94
2022/04/02 06:54:56;;;;;;;;;;;;;;;4.29;61.09;101101.13;4978180;28;1918;-94
2022/04/02 06:57:22;;;;;;;;;;;;;;;4.23;61.18;101094.63;4979017;28;2189;-94
2022/04/02 06:59:49;;;;;;;;;;;;;;;4.26;61.10;101090.78;4975131;28;1973;-95
2022/04/02 07:02:15;;;;;;;;;;;;;;;4.25;61.20;101091.81;4964016;28;2599;-95
2022/04/02 07:04:42;;;;;;;;;;;;;;;4.25;61.14;101089.97;4978153;28;2973;-95
2022/04/02 07:07:08;;;;;;;;;;;;;;;4.28;61.13;101091.47;4975123;28;2051;-96
2022/04/02 07:09:35;;;;;;;;;;;;;;;4.28;61.09;101094.97;4977608;28;1179;-94
2022/04/02 07:12:01;;;;;;;;;;;;;;;4.30;61.02;101094.81;4995198;28;2297;-95
2022/04/02 07:14:28;;;;;;;;;;;;;;;4.29;61.13;101091.31;4980358;28;1728;-95
2022/04/02 07:16:54;;;;;;;;;;;;;;;4.24;61.15;101090.97;4980122;28;1915;-95
2022/04/02 07:19:20;;;;;;;;;;;;;;;4.26;61.07;101075.63;4980485;28;2116;-95
2022/04/02 07:21:47;;;;;;;;;;;;;;;4.32;61.02;101076.78;4970443;28;1314;-95
2022/04/02 07:24:13;;;;;;;;;;;;;;;4.32;60.88;101082.13;4980399;28;1492;-95
2022/04/02 07:26:40;;;;;;;;;;;;;;;4.29;61.05;101080.66;4978769;28;2356;-96
2022/04/02 07:29:06;;;;;;;;;;;;;;;4.30;60.88;101089.47;4979452;28;1932;-94
2022/04/02 07:31:32;;;;;;;;;;;;;;;4.32;61.02;101085.66;4969511;28;2236;-95
2022/04/02 07:33:59;;;;;;;;;;;;;;;4.30;61.12;101076.97;4992756;28;1313;-95
2022/04/02 07:36:25;;;;;;;;;;;;;;;4.33;61.20;101078.50;4978227;28;2158;-96
2022/04/02 07:38:52;;;;;;;;;;;;;;;4.33;61.03;101071.31;4979384;28;1751;-95
2022/04/02 07:41:18;;;;;;;;;;;;;;;4.37;61.08;101081.66;4979287;28;1284;-96
2022/04/02 07:43:44;;;;;;;;;;;;;;;4.39;60.94;101079.66;4974702;28;2175;-95
2022/04/02 07:46:11;;;;;;;;;;;;;;;4.35;61.13;101078.31;4981115;28;1239;-95
2022/04/02 07:48:43;;;;;;;;;;;;;;;4.37;60.84;101073.66;4997423;28;1551;-96
2022/04/02 07:51:10;;;;;;;;;;;;;;;4.41;60.88;101070.50;5010445;28;1287;-96
2022/04/02 07:53:38;;;;;;;;;;;;;;;4.40;61.01;101070.66;5081332;22;3665;-96
2022/04/02 07:56:04;;;;;;;;;;;;;;;4.39;60.99;101066.31;5047417;28;1918;-96
2022/04/02 07:58:31;;;;;;;;;;;;;;;4.43;61.13;101073.81;5057698;28;2021;-96
2022/04/02 08:00:57;;;;;;;;;;;;;;;4.47;60.94;101071.63;5055380;28;1906;-95
2022/04/02 08:03:24;;;;;;;;;;;;;;;4.45;60.91;101068.31;5049481;28;1323;-95
2022/04/02 08:05:50;;;;;;;;;;;;;;;4.43;60.88;101065.81;5070983;28;1181;-96
2022/04/02 08:08:17;;;;;;;;;;;;;;;4.46;60.93;101075.31;5057478;28;1362;-96
2022/04/02 08:10:46;;;;;;;;;;;;;;;4.50;60.96;101071.28;5040282;28;1279;-96
2022/04/02 08:13:13;;;;;;;;;;;;;;;4.49;60.93;101070.47;5037995;28;1414;-96
2022/04/02 08:15:39;;;;;;;;;;;;;;;4.48;61.07;101073.31;5037752;28;1984;-96
2022/04/02 08:18:06;;;;;;;;;;;;;;;4.49;61.19;101069.63;5054725;28;1172;-96
2022/04/02 08:20:32;;;;;;;;;;;;;;;4.48;61.12;101055.47;5061681;28;1346;-96
2022/04/02 08:23:08;;;;;;;;;;;;;;;4.48;60.96;101063.47;5050050;28;1457;-96
2022/04/02 08:25:41;;;;;;;;;;;;;;;4.54;61.13;101060.13;5045600;28;1556;-96
2022/04/02 08:28:12;;;;;;;;;;;;;;;4.55;61.08;101064.47;5054628;28;1720;-96
2022/04/02 08:30:38;;;;;;;;;;;;;;;4.54;60.97;101065.47;5057012;28;1472;-96
2022/04/02 08:33:05;;;;;;;;;;;;;;;4.59;60.97;101067.66;5063450;28;1362;-96
2022/04/02 08:35:35;;;;;;;;;;;;;;;4.61;60.99;101067.47;5066646;28;2134;-96
2022/04/02 08:38:07;;;;;;;;;;;;;;;4.65;61.02;101061.63;5066368;28;1490;-96
2022/04/02 08:40:35;;;;;;;;;;;;;;;4.66;60.98;101065.97;5052806;28;1091;-96
2022/04/02 08:43:12;;;;;;;;;;;;;;;4.66;61.00;101071.31;5053095;28;1553;-96
2022/04/02 08:45:44;;;;;;;;;;;;;;;4.65;61.09;101060.81;5071415;28;935;-96
2022/04/02 08:51:37;;;;;;;;;;;;;;;4.70;61.12;101064.59;5075470;28;1425;-96
2022/04/02 08:54:05;;;;;;;;;;;;;;;4.72;60.98;101069.78;5029879;28;2873;-96
2022/04/02 08:56:38;;;;;;;;;;;;;;;4.77;60.89;101067.47;5029595;28;2269;-96
2022/04/02 08:59:11;;;;;;;;;;;;;;;4.77;61.15;101062.13;5046336;28;1224;-96
2022/04/02 09:01:41;;;;;;;;;;;;;;;4.76;61.00;101058.63;5030434;28;1592;-96
2022/04/02 09:04:10;;;;;;;;;;;;;;;4.80;61.14;101068.97;5031760;28;1435;-96
2022/04/02 09:09:22;;;;;;;;;;;;;;;4.82;61.06;101065.09;5026929;28;1329;-96
2022/04/02 09:14:40;;;;;;;;;;;;;;;4.87;61.14;101052.09;5015132;28;1408;-96
2022/04/02 09:17:23;;;;;;;;;;;;;;;4.88;60.94;101056.44;5016498;28;1887;-96
2022/04/02 09:53:45;;;;;;;;;;;;;;;5.18;60.91;101033.47;5174149;22;1918;-96
2022/04/02 09:56:15;;;;;;;;;;;;;;;5.21;61.09;101030.47;5099481;28;1894;-96
2022/04/02 19:04:37;;;;;;;;;;;;;;;8.00;64.86;100679.97;5024537;28;1172;-96
2022/04/02 23:15:55;;;;;;;;;;;;;;;6.79;63.95;100621.28;4990409;28;1887;-94
2022/04/02 23:40:54;;;;;;;;;;;;;;;6.66;63.94;100605.09;5070616;28;796;-96
